sensor_id;sensor_type;location;lat;lon;timestamp;P1;durP1;ratioP1;P2;durP2;ratioP2
72125;SDS011;59999;51.676;22.650;2023-03-31T00:02:01;27.70;;;11.40;;
72125;SDS011;59999;51.676;22.650;2023-03-31T00:04:31;26.92;;;13.43;;
72125;SDS011;59999;51.676;22.650;2023-03-31T00:06:58;32.60;;;14.68;;
72125;SDS011;59999;51.676;22.650;2023-03-31T00:09:24;29.43;;;13.30;;
72125;SDS011;59999;51.676;22.650;2023-03-31T00:11:50;30.40;;;13.82;;
72125;SDS011;59999;51.676;22.650;2023-03-31T00:14:17;22.27;;;9.73;;
72125;SDS011;59999;51.676;22.650;2023-03-31T00:16:44;28.70;;;12.57;;
72125;SDS011;59999;51.676;22.650;2023-03-31T00:19:10;25.97;;;11.90;;
72125;SDS011;59999;51.676;22.650;2023-03-31T00:21:51;26.63;;;10.57;;
72125;SDS011;59999;51.676;22.650;2023-03-31T00:24:18;29.50;;;13.57;;
72125;SDS011;59999;51.676;22.650;2023-03-31T00:26:45;31.35;;;13.15;;
72125;SDS011;59999;51.676;22.650;2023-03-31T00:29:11;25.58;;;12.38;;
72125;SDS011;59999;51.676;22.650;2023-03-31T00:31:38;24.03;;;11.57;;
72125;SDS011;59999;51.676;22.650;2023-03-31T00:34:05;26.75;;;11.35;;
72125;SDS011;59999;51.676;22.650;2023-03-31T00:36:31;29.27;;;12.95;;
72125;SDS011;59999;51.676;22.650;2023-03-31T00:39:02;26.13;;;10.93;;
72125;SDS011;59999;51.676;22.650;2023-03-31T00:41:37;27.80;;;12.05;;
72125;SDS011;59999;51.676;22.650;2023-03-31T00:54:43;26.40;;;11.63;;
72125;SDS011;59999;51.676;22.650;2023-03-31T00:57:11;29.03;;;13.23;;
72125;SDS011;59999;51.676;22.650;2023-03-31T00:59:39;25.35;;;11.88;;
72125;SDS011;59999;51.676;22.650;2023-03-31T01:02:10;27.30;;;12.40;;
72125;SDS011;59999;51.676;22.650;2023-03-31T01:04:38;26.20;;;11.82;;
72125;SDS011;59999;51.676;22.650;2023-03-31T01:09:43;27.63;;;11.33;;
72125;SDS011;59999;51.676;22.650;2023-03-31T01:12:11;31.00;;;14.23;;
72125;SDS011;59999;51.676;22.650;2023-03-31T01:14:40;28.65;;;13.25;;
72125;SDS011;59999;51.676;22.650;2023-03-31T01:17:06;23.80;;;11.57;;
72125;SDS011;59999;51.676;22.650;2023-03-31T01:19:41;27.10;;;11.25;;
72125;SDS011;59999;51.676;22.650;2023-03-31T01:22:28;28.97;;;12.77;;
72125;SDS011;59999;51.676;22.650;2023-03-31T01:28:06;24.90;;;11.88;;
72125;SDS011;59999;51.676;22.650;2023-03-31T01:40:39;31.60;;;13.60;;
72125;SDS011;59999;51.676;22.650;2023-03-31T01:48:34;32.40;;;14.35;;
72125;SDS011;59999;51.676;22.650;2023-03-31T01:51:26;33.57;;;13.97;;
72125;SDS011;59999;51.676;22.650;2023-03-31T01:56:41;36.40;;;15.90;;
72125;SDS011;59999;51.676;22.650;2023-03-31T02:04:20;35.30;;;15.83;;
72125;SDS011;59999;51.676;22.650;2023-03-31T02:06:53;36.17;;;16.50;;
72125;SDS011;59999;51.676;22.650;2023-03-31T02:09:36;41.10;;;18.27;;
72125;SDS011;59999;51.676;22.650;2023-03-31T02:12:07;40.35;;;18.05;;
72125;SDS011;59999;51.676;22.650;2023-03-31T02:14:36;27.77;;;14.23;;
72125;SDS011;59999;51.676;22.650;2023-03-31T02:17:05;36.37;;;14.97;;
72125;SDS011;59999;51.676;22.650;2023-03-31T02:19:37;39.53;;;17.45;;
72125;SDS011;59999;51.676;22.650;2023-03-31T02:22:06;32.50;;;14.82;;
72125;SDS011;59999;51.676;22.650;2023-03-31T02:24:34;40.28;;;17.85;;
72125;SDS011;59999;51.676;22.650;2023-03-31T02:29:49;37.00;;;16.00;;
72125;SDS011;59999;51.676;22.650;2023-03-31T02:35:04;40.67;;;18.55;;
72125;SDS011;59999;51.676;22.650;2023-03-31T02:37:32;41.53;;;19.23;;
72125;SDS011;59999;51.676;22.650;2023-03-31T02:39:59;41.38;;;19.23;;
72125;SDS011;59999;51.676;22.650;2023-03-31T02:42:29;39.00;;;18.17;;
72125;SDS011;59999;51.676;22.650;2023-03-31T02:45:05;36.63;;;16.35;;
72125;SDS011;59999;51.676;22.650;2023-03-31T02:47:32;47.38;;;20.38;;
72125;SDS011;59999;51.676;22.650;2023-03-31T02:49:59;43.78;;;17.45;;
72125;SDS011;59999;51.676;22.650;2023-03-31T02:55:19;39.80;;;18.35;;
72125;SDS011;59999;51.676;22.650;2023-03-31T03:15:01;44.10;;;20.08;;
72125;SDS011;59999;51.676;22.650;2023-03-31T03:17:45;38.80;;;17.73;;
72125;SDS011;59999;51.676;22.650;2023-03-31T03:20:13;45.95;;;21.05;;
72125;SDS011;59999;51.676;22.650;2023-03-31T03:22:42;49.22;;;22.02;;
72125;SDS011;59999;51.676;22.650;2023-03-31T03:25:09;42.45;;;19.10;;
72125;SDS011;59999;51.676;22.650;2023-03-31T03:27:37;49.65;;;22.25;;
72125;SDS011;59999;51.676;22.650;2023-03-31T03:30:05;44.30;;;19.67;;
72125;SDS011;59999;51.676;22.650;2023-03-31T03:32:33;52.05;;;21.02;;
72125;SDS011;59999;51.676;22.650;2023-03-31T03:34:59;44.53;;;19.88;;
72125;SDS011;59999;51.676;22.650;2023-03-31T03:37:26;42.28;;;19.35;;
72125;SDS011;59999;51.676;22.650;2023-03-31T03:39:52;44.20;;;19.90;;
72125;SDS011;59999;51.676;22.650;2023-03-31T03:42:18;43.53;;;18.42;;
72125;SDS011;59999;51.676;22.650;2023-03-31T03:44:44;47.97;;;20.13;;
72125;SDS011;59999;51.676;22.650;2023-03-31T03:47:10;43.72;;;20.25;;
72125;SDS011;59999;51.676;22.650;2023-03-31T03:49:36;44.67;;;19.40;;
72125;SDS011;59999;51.676;22.650;2023-03-31T03:52:02;43.40;;;18.57;;
72125;SDS011;59999;51.676;22.650;2023-03-31T03:54:28;38.88;;;17.13;;
72125;SDS011;59999;51.676;22.650;2023-03-31T03:56:54;46.22;;;21.13;;
72125;SDS011;59999;51.676;22.650;2023-03-31T03:59:20;43.70;;;19.85;;
72125;SDS011;59999;51.676;22.650;2023-03-31T04:01:46;44.30;;;19.80;;
72125;SDS011;59999;51.676;22.650;2023-03-31T04:04:12;39.42;;;18.75;;
72125;SDS011;59999;51.676;22.650;2023-03-31T04:24:31;39.63;;;17.30;;
72125;SDS011;59999;51.676;22.650;2023-03-31T04:26:57;39.53;;;18.55;;
72125;SDS011;59999;51.676;22.650;2023-03-31T04:29:24;34.60;;;15.63;;
72125;SDS011;59999;51.676;22.650;2023-03-31T04:31:53;33.58;;;15.68;;
72125;SDS011;59999;51.676;22.650;2023-03-31T04:34:23;35.58;;;16.40;;
72125;SDS011;59999;51.676;22.650;2023-03-31T04:36:51;33.92;;;16.20;;
72125;SDS011;59999;51.676;22.650;2023-03-31T04:39:20;36.35;;;15.93;;
72125;SDS011;59999;51.676;22.650;2023-03-31T04:41:55;35.40;;;15.37;;
72125;SDS011;59999;51.676;22.650;2023-03-31T04:44:22;36.20;;;16.48;;
72125;SDS011;59999;51.676;22.650;2023-03-31T04:46:48;29.25;;;13.38;;
72125;SDS011;59999;51.676;22.650;2023-03-31T04:49:14;37.17;;;16.83;;
72125;SDS011;59999;51.676;22.650;2023-03-31T04:51:40;36.93;;;16.87;;
72125;SDS011;59999;51.676;22.650;2023-03-31T04:54:06;32.95;;;15.50;;
72125;SDS011;59999;51.676;22.650;2023-03-31T04:56:32;33.55;;;15.15;;
72125;SDS011;59999;51.676;22.650;2023-03-31T04:58:58;32.58;;;14.77;;
72125;SDS011;59999;51.676;22.650;2023-03-31T05:01:24;35.27;;;16.63;;
72125;SDS011;59999;51.676;22.650;2023-03-31T05:03:50;34.80;;;17.00;;
72125;SDS011;59999;51.676;22.650;2023-03-31T05:06:16;34.55;;;16.60;;
72125;SDS011;59999;51.676;22.650;2023-03-31T05:08:42;31.20;;;14.27;;
72125;SDS011;59999;51.676;22.650;2023-03-31T05:11:08;32.87;;;14.43;;
72125;SDS011;59999;51.676;22.650;2023-03-31T05:13:35;31.65;;;15.95;;
72125;SDS011;59999;51.676;22.650;2023-03-31T05:16:05;33.17;;;16.13;;
72125;SDS011;59999;51.676;22.650;2023-03-31T05:18:35;31.65;;;14.23;;
72125;SDS011;59999;51.676;22.650;2023-03-31T05:21:08;33.40;;;14.37;;
72125;SDS011;59999;51.676;22.650;2023-03-31T05:23:35;30.33;;;14.02;;
72125;SDS011;59999;51.676;22.650;2023-03-31T05:26:01;36.45;;;15.02;;
72125;SDS011;59999;51.676;22.650;2023-03-31T05:28:27;30.75;;;14.55;;
72125;SDS011;59999;51.676;22.650;2023-03-31T05:30:53;34.83;;;15.67;;
72125;SDS011;59999;51.676;22.650;2023-03-31T05:33:19;29.70;;;14.32;;
72125;SDS011;59999;51.676;22.650;2023-03-31T05:35:45;31.60;;;14.63;;
72125;SDS011;59999;51.676;22.650;2023-03-31T05:38:11;34.10;;;15.60;;
72125;SDS011;59999;51.676;22.650;2023-03-31T05:40:37;31.30;;;14.75;;
72125;SDS011;59999;51.676;22.650;2023-03-31T05:43:03;51.53;;;21.02;;
72125;SDS011;59999;51.676;22.650;2023-03-31T05:45:28;43.77;;;19.40;;
72125;SDS011;59999;51.676;22.650;2023-03-31T05:47:55;30.13;;;14.43;;
72125;SDS011;59999;51.676;22.650;2023-03-31T05:50:20;30.52;;;14.05;;
72125;SDS011;59999;51.676;22.650;2023-03-31T05:52:47;26.48;;;12.88;;
72125;SDS011;59999;51.676;22.650;2023-03-31T05:55:12;25.93;;;11.60;;
72125;SDS011;59999;51.676;22.650;2023-03-31T05:57:38;30.02;;;13.45;;
72125;SDS011;59999;51.676;22.650;2023-03-31T06:00:04;23.52;;;11.85;;
72125;SDS011;59999;51.676;22.650;2023-03-31T06:02:34;23.60;;;10.40;;
72125;SDS011;59999;51.676;22.650;2023-03-31T06:05:00;25.83;;;12.33;;
72125;SDS011;59999;51.676;22.650;2023-03-31T06:07:26;22.90;;;11.25;;
72125;SDS011;59999;51.676;22.650;2023-03-31T06:09:52;24.95;;;11.57;;
72125;SDS011;59999;51.676;22.650;2023-03-31T06:12:18;22.93;;;11.13;;
72125;SDS011;59999;51.676;22.650;2023-03-31T06:14:44;24.75;;;11.30;;
72125;SDS011;59999;51.676;22.650;2023-03-31T06:17:10;21.23;;;10.20;;
72125;SDS011;59999;51.676;22.650;2023-03-31T06:19:36;20.85;;;8.73;;
72125;SDS011;59999;51.676;22.650;2023-03-31T06:22:02;22.87;;;11.83;;
72125;SDS011;59999;51.676;22.650;2023-03-31T06:24:28;20.08;;;9.38;;
72125;SDS011;59999;51.676;22.650;2023-03-31T06:26:54;24.50;;;9.95;;
72125;SDS011;59999;51.676;22.650;2023-03-31T06:29:20;20.80;;;8.93;;
72125;SDS011;59999;51.676;22.650;2023-03-31T06:31:46;20.08;;;9.40;;
72125;SDS011;59999;51.676;22.650;2023-03-31T06:34:12;21.25;;;9.45;;
72125;SDS011;59999;51.676;22.650;2023-03-31T06:36:38;23.85;;;10.00;;
72125;SDS011;59999;51.676;22.650;2023-03-31T06:39:04;22.60;;;9.27;;
72125;SDS011;59999;51.676;22.650;2023-03-31T06:41:30;18.92;;;9.57;;
72125;SDS011;59999;51.676;22.650;2023-03-31T06:43:56;21.02;;;9.95;;
72125;SDS011;59999;51.676;22.650;2023-03-31T06:46:22;18.25;;;8.95;;
72125;SDS011;59999;51.676;22.650;2023-03-31T06:48:48;18.40;;;8.67;;
72125;SDS011;59999;51.676;22.650;2023-03-31T06:51:14;21.23;;;9.68;;
72125;SDS011;59999;51.676;22.650;2023-03-31T06:53:40;17.42;;;7.82;;
72125;SDS011;59999;51.676;22.650;2023-03-31T06:56:06;16.98;;;8.32;;
72125;SDS011;59999;51.676;22.650;2023-03-31T06:58:32;18.17;;;7.83;;
72125;SDS011;59999;51.676;22.650;2023-03-31T07:01:00;17.88;;;8.02;;
72125;SDS011;59999;51.676;22.650;2023-03-31T07:03:27;14.75;;;7.10;;
72125;SDS011;59999;51.676;22.650;2023-03-31T07:05:54;16.02;;;7.45;;
72125;SDS011;59999;51.676;22.650;2023-03-31T07:08:21;16.30;;;6.77;;
72125;SDS011;59999;51.676;22.650;2023-03-31T07:10:48;15.15;;;6.72;;
72125;SDS011;59999;51.676;22.650;2023-03-31T07:13:18;16.73;;;7.13;;
72125;SDS011;59999;51.676;22.650;2023-03-31T07:18:29;14.63;;;6.57;;
72125;SDS011;59999;51.676;22.650;2023-03-31T07:20:59;14.17;;;6.63;;
72125;SDS011;59999;51.676;22.650;2023-03-31T07:23:25;15.75;;;6.55;;
72125;SDS011;59999;51.676;22.650;2023-03-31T07:25:52;14.68;;;6.80;;
72125;SDS011;59999;51.676;22.650;2023-03-31T07:28:18;12.70;;;5.65;;
72125;SDS011;59999;51.676;22.650;2023-03-31T07:30:44;11.97;;;5.47;;
72125;SDS011;59999;51.676;22.650;2023-03-31T07:33:10;15.27;;;5.22;;
72125;SDS011;59999;51.676;22.650;2023-03-31T07:35:37;11.15;;;4.80;;
72125;SDS011;59999;51.676;22.650;2023-03-31T07:38:06;13.10;;;5.32;;
72125;SDS011;59999;51.676;22.650;2023-03-31T07:40:36;10.63;;;4.13;;
72125;SDS011;59999;51.676;22.650;2023-03-31T07:43:02;11.35;;;4.50;;
72125;SDS011;59999;51.676;22.650;2023-03-31T07:45:29;13.27;;;4.95;;
72125;SDS011;59999;51.676;22.650;2023-03-31T07:47:55;10.20;;;4.35;;
72125;SDS011;59999;51.676;22.650;2023-03-31T07:50:22;9.73;;;4.28;;
72125;SDS011;59999;51.676;22.650;2023-03-31T07:52:48;11.00;;;4.03;;
72125;SDS011;59999;51.676;22.650;2023-03-31T07:55:15;12.68;;;4.45;;
72125;SDS011;59999;51.676;22.650;2023-03-31T07:57:41;16.08;;;6.20;;
72125;SDS011;59999;51.676;22.650;2023-03-31T08:00:09;13.10;;;5.35;;
72125;SDS011;59999;51.676;22.650;2023-03-31T08:02:37;16.47;;;6.47;;
72125;SDS011;59999;51.676;22.650;2023-03-31T08:05:04;16.52;;;6.30;;
72125;SDS011;59999;51.676;22.650;2023-03-31T08:07:35;18.10;;;8.43;;
72125;SDS011;59999;51.676;22.650;2023-03-31T08:10:03;16.33;;;6.55;;
72125;SDS011;59999;51.676;22.650;2023-03-31T08:12:30;17.83;;;7.43;;
72125;SDS011;59999;51.676;22.650;2023-03-31T08:14:57;19.13;;;8.60;;
72125;SDS011;59999;51.676;22.650;2023-03-31T08:17:23;19.15;;;8.50;;
72125;SDS011;59999;51.676;22.650;2023-03-31T08:19:49;22.60;;;8.57;;
72125;SDS011;59999;51.676;22.650;2023-03-31T08:22:16;18.23;;;8.18;;
72125;SDS011;59999;51.676;22.650;2023-03-31T08:24:43;19.37;;;9.00;;
72125;SDS011;59999;51.676;22.650;2023-03-31T08:27:08;23.15;;;10.95;;
72125;SDS011;59999;51.676;22.650;2023-03-31T08:29:35;20.17;;;9.82;;
72125;SDS011;59999;51.676;22.650;2023-03-31T08:32:00;14.03;;;6.17;;
72125;SDS011;59999;51.676;22.650;2023-03-31T08:34:27;15.95;;;7.15;;
72125;SDS011;59999;51.676;22.650;2023-03-31T08:36:52;19.35;;;10.30;;
72125;SDS011;59999;51.676;22.650;2023-03-31T08:39:19;18.42;;;8.50;;
72125;SDS011;59999;51.676;22.650;2023-03-31T08:45:15;25.38;;;11.13;;
72125;SDS011;59999;51.676;22.650;2023-03-31T08:47:46;28.30;;;10.82;;
72125;SDS011;59999;51.676;22.650;2023-03-31T08:50:18;25.30;;;11.52;;
72125;SDS011;59999;51.676;22.650;2023-03-31T08:52:49;19.83;;;8.70;;
72125;SDS011;59999;51.676;22.650;2023-03-31T08:55:55;19.20;;;8.05;;
72125;SDS011;59999;51.676;22.650;2023-03-31T09:06:53;18.90;;;7.37;;
72125;SDS011;59999;51.676;22.650;2023-03-31T09:09:27;19.67;;;7.78;;
72125;SDS011;59999;51.676;22.650;2023-03-31T09:15:00;16.83;;;7.05;;
72125;SDS011;59999;51.676;22.650;2023-03-31T09:17:30;17.42;;;7.85;;
72125;SDS011;59999;51.676;22.650;2023-03-31T09:20:13;17.00;;;8.17;;
72125;SDS011;59999;51.676;22.650;2023-03-31T09:22:51;14.85;;;6.93;;
72125;SDS011;59999;51.676;22.650;2023-03-31T09:25:22;15.07;;;7.20;;
72125;SDS011;59999;51.676;22.650;2023-03-31T09:27:52;15.60;;;7.35;;
72125;SDS011;59999;51.676;22.650;2023-03-31T09:32:52;21.13;;;8.73;;
72125;SDS011;59999;51.676;22.650;2023-03-31T09:35:28;19.17;;;8.75;;
72125;SDS011;59999;51.676;22.650;2023-03-31T09:37:58;16.13;;;7.97;;
72125;SDS011;59999;51.676;22.650;2023-03-31T09:40:25;14.07;;;5.93;;
72125;SDS011;59999;51.676;22.650;2023-03-31T09:42:54;16.70;;;7.35;;
72125;SDS011;59999;51.676;22.650;2023-03-31T09:45:26;19.33;;;8.30;;
72125;SDS011;59999;51.676;22.650;2023-03-31T09:47:53;13.82;;;6.65;;
72125;SDS011;59999;51.676;22.650;2023-03-31T09:50:21;19.25;;;7.45;;
72125;SDS011;59999;51.676;22.650;2023-03-31T09:52:49;12.13;;;5.85;;
72125;SDS011;59999;51.676;22.650;2023-03-31T09:58:21;13.07;;;5.57;;
72125;SDS011;59999;51.676;22.650;2023-03-31T10:00:57;10.88;;;4.40;;
72125;SDS011;59999;51.676;22.650;2023-03-31T10:03:29;12.52;;;5.68;;
72125;SDS011;59999;51.676;22.650;2023-03-31T10:06:00;13.63;;;6.55;;
72125;SDS011;59999;51.676;22.650;2023-03-31T10:08:33;12.35;;;6.22;;
72125;SDS011;59999;51.676;22.650;2023-03-31T10:11:07;11.73;;;5.30;;
72125;SDS011;59999;51.676;22.650;2023-03-31T10:16:44;10.55;;;4.32;;
72125;SDS011;59999;51.676;22.650;2023-03-31T10:19:25;12.82;;;4.15;;
72125;SDS011;59999;51.676;22.650;2023-03-31T10:22:02;10.85;;;4.45;;
72125;SDS011;59999;51.676;22.650;2023-03-31T10:24:43;10.93;;;4.50;;
72125;SDS011;59999;51.676;22.650;2023-03-31T10:30:01;13.35;;;5.93;;
72125;SDS011;59999;51.676;22.650;2023-03-31T10:32:29;17.70;;;8.68;;
72125;SDS011;59999;51.676;22.650;2023-03-31T10:34:58;14.73;;;7.15;;
72125;SDS011;59999;51.676;22.650;2023-03-31T10:37:30;9.03;;;3.80;;
72125;SDS011;59999;51.676;22.650;2023-03-31T10:40:03;11.45;;;4.93;;
72125;SDS011;59999;51.676;22.650;2023-03-31T10:42:43;10.40;;;4.80;;
72125;SDS011;59999;51.676;22.650;2023-03-31T10:47:51;11.27;;;4.82;;
72125;SDS011;59999;51.676;22.650;2023-03-31T10:50:19;11.20;;;5.20;;
72125;SDS011;59999;51.676;22.650;2023-03-31T10:53:31;10.45;;;5.03;;
72125;SDS011;59999;51.676;22.650;2023-03-31T10:59:23;10.63;;;5.00;;
72125;SDS011;59999;51.676;22.650;2023-03-31T11:04:50;11.77;;;5.60;;
72125;SDS011;59999;51.676;22.650;2023-03-31T11:07:24;14.38;;;6.75;;
72125;SDS011;59999;51.676;22.650;2023-03-31T11:12:48;14.80;;;6.90;;
72125;SDS011;59999;51.676;22.650;2023-03-31T11:21:17;14.75;;;6.38;;
72125;SDS011;59999;51.676;22.650;2023-03-31T11:26:41;16.98;;;7.32;;
72125;SDS011;59999;51.676;22.650;2023-03-31T11:35:05;12.43;;;4.10;;
72125;SDS011;59999;51.676;22.650;2023-03-31T11:43:41;9.90;;;4.25;;
72125;SDS011;59999;51.676;22.650;2023-03-31T11:51:26;9.23;;;3.85;;
72125;SDS011;59999;51.676;22.650;2023-03-31T11:54:29;10.52;;;4.43;;
72125;SDS011;59999;51.676;22.650;2023-03-31T11:57:24;9.45;;;3.88;;
72125;SDS011;59999;51.676;22.650;2023-03-31T12:00:16;10.10;;;4.13;;
72125;SDS011;59999;51.676;22.650;2023-03-31T12:02:57;10.63;;;4.25;;
72125;SDS011;59999;51.676;22.650;2023-03-31T12:05:27;13.95;;;5.60;;
72125;SDS011;59999;51.676;22.650;2023-03-31T12:10:35;14.90;;;5.88;;
72125;SDS011;59999;51.676;22.650;2023-03-31T12:21:30;21.63;;;10.35;;
72125;SDS011;59999;51.676;22.650;2023-03-31T12:23:58;11.70;;;4.38;;
72125;SDS011;59999;51.676;22.650;2023-03-31T12:26:31;12.10;;;5.33;;
72125;SDS011;59999;51.676;22.650;2023-03-31T12:29:24;11.40;;;5.25;;
72125;SDS011;59999;51.676;22.650;2023-03-31T12:31:56;9.80;;;5.05;;
72125;SDS011;59999;51.676;22.650;2023-03-31T12:34:25;8.85;;;4.00;;
72125;SDS011;59999;51.676;22.650;2023-03-31T12:42:03;9.57;;;3.20;;
72125;SDS011;59999;51.676;22.650;2023-03-31T12:44:52;8.23;;;3.28;;
72125;SDS011;59999;51.676;22.650;2023-03-31T13:01:12;9.82;;;3.55;;
72125;SDS011;59999;51.676;22.650;2023-03-31T13:04:07;10.47;;;3.53;;
72125;SDS011;59999;51.676;22.650;2023-03-31T13:11:37;7.75;;;3.08;;
72125;SDS011;59999;51.676;22.650;2023-03-31T13:17:18;7.53;;;2.97;;
72125;SDS011;59999;51.676;22.650;2023-03-31T13:19:51;9.77;;;4.40;;
72125;SDS011;59999;51.676;22.650;2023-03-31T13:22:31;10.65;;;3.78;;
72125;SDS011;59999;51.676;22.650;2023-03-31T13:27:52;10.70;;;4.07;;
72125;SDS011;59999;51.676;22.650;2023-03-31T13:33:09;9.10;;;4.10;;
72125;SDS011;59999;51.676;22.650;2023-03-31T13:35:39;10.35;;;3.72;;
72125;SDS011;59999;51.676;22.650;2023-03-31T13:41:09;11.53;;;6.80;;
72125;SDS011;59999;51.676;22.650;2023-03-31T13:46:21;13.57;;;4.82;;
72125;SDS011;59999;51.676;22.650;2023-03-31T13:57:26;11.57;;;5.68;;
72125;SDS011;59999;51.676;22.650;2023-03-31T14:08:13;11.23;;;6.40;;
72125;SDS011;59999;51.676;22.650;2023-03-31T14:11:43;12.93;;;7.10;;
72125;SDS011;59999;51.676;22.650;2023-03-31T14:16:58;9.30;;;4.43;;
72125;SDS011;59999;51.676;22.650;2023-03-31T14:22:15;10.70;;;5.07;;
72125;SDS011;59999;51.676;22.650;2023-03-31T14:24:47;10.07;;;5.45;;
72125;SDS011;59999;51.676;22.650;2023-03-31T14:32:35;11.70;;;3.97;;
72125;SDS011;59999;51.676;22.650;2023-03-31T14:35:28;32.50;;;13.33;;
72125;SDS011;59999;51.676;22.650;2023-03-31T14:38:04;16.02;;;7.32;;
72125;SDS011;59999;51.676;22.650;2023-03-31T14:40:36;22.75;;;10.68;;
72125;SDS011;59999;51.676;22.650;2023-03-31T14:43:55;18.75;;;9.40;;
72125;SDS011;59999;51.676;22.650;2023-03-31T14:46:05;12.30;;;6.70;;
72125;SDS011;59999;51.676;22.650;2023-03-31T14:48:33;11.20;;;4.87;;
72125;SDS011;59999;51.676;22.650;2023-03-31T14:51:08;11.73;;;5.78;;
72125;SDS011;59999;51.676;22.650;2023-03-31T14:53:34;28.10;;;12.63;;
72125;SDS011;59999;51.676;22.650;2023-03-31T14:56:04;52.70;;;20.50;;
72125;SDS011;59999;51.676;22.650;2023-03-31T14:58:35;36.78;;;13.52;;
72125;SDS011;59999;51.676;22.650;2023-03-31T15:01:06;21.10;;;9.20;;
72125;SDS011;59999;51.676;22.650;2023-03-31T15:03:35;19.55;;;7.07;;
72125;SDS011;59999;51.676;22.650;2023-03-31T15:06:05;12.07;;;5.30;;
72125;SDS011;59999;51.676;22.650;2023-03-31T15:08:32;27.23;;;9.70;;
72125;SDS011;59999;51.676;22.650;2023-03-31T15:11:02;29.15;;;10.75;;
72125;SDS011;59999;51.676;22.650;2023-03-31T15:13:33;29.17;;;9.97;;
72125;SDS011;59999;51.676;22.650;2023-03-31T15:16:26;21.70;;;7.65;;
72125;SDS011;59999;51.676;22.650;2023-03-31T15:19:00;18.27;;;5.60;;
72125;SDS011;59999;51.676;22.650;2023-03-31T15:21:31;11.77;;;4.53;;
72125;SDS011;59999;51.676;22.650;2023-03-31T15:24:02;8.90;;;3.20;;
72125;SDS011;59999;51.676;22.650;2023-03-31T15:26:36;8.47;;;3.00;;
72125;SDS011;59999;51.676;22.650;2023-03-31T15:32:02;9.50;;;3.40;;
72125;SDS011;59999;51.676;22.650;2023-03-31T15:34:32;9.45;;;3.53;;
72125;SDS011;59999;51.676;22.650;2023-03-31T15:36:59;11.30;;;3.10;;
72125;SDS011;59999;51.676;22.650;2023-03-31T15:39:27;10.40;;;4.13;;
72125;SDS011;59999;51.676;22.650;2023-03-31T15:41:56;15.43;;;7.55;;
72125;SDS011;59999;51.676;22.650;2023-03-31T15:44:36;23.60;;;11.38;;
72125;SDS011;59999;51.676;22.650;2023-03-31T15:47:27;16.35;;;8.50;;
72125;SDS011;59999;51.676;22.650;2023-03-31T15:49:56;16.80;;;8.32;;
72125;SDS011;59999;51.676;22.650;2023-03-31T15:52:28;10.20;;;4.93;;
72125;SDS011;59999;51.676;22.650;2023-03-31T15:54:58;8.25;;;4.25;;
72125;SDS011;59999;51.676;22.650;2023-03-31T15:57:34;8.90;;;4.47;;
72125;SDS011;59999;51.676;22.650;2023-03-31T16:00:00;11.10;;;4.97;;
72125;SDS011;59999;51.676;22.650;2023-03-31T16:02:35;9.60;;;4.22;;
72125;SDS011;59999;51.676;22.650;2023-03-31T16:05:04;8.47;;;3.53;;
72125;SDS011;59999;51.676;22.650;2023-03-31T16:07:32;8.88;;;4.13;;
72125;SDS011;59999;51.676;22.650;2023-03-31T16:10:02;8.10;;;3.95;;
72125;SDS011;59999;51.676;22.650;2023-03-31T16:15:06;7.50;;;3.25;;
72125;SDS011;59999;51.676;22.650;2023-03-31T16:17:39;8.43;;;3.83;;
72125;SDS011;59999;51.676;22.650;2023-03-31T16:20:19;8.85;;;4.18;;
72125;SDS011;59999;51.676;22.650;2023-03-31T16:22:57;7.85;;;3.90;;
72125;SDS011;59999;51.676;22.650;2023-03-31T16:25:25;9.02;;;4.30;;
72125;SDS011;59999;51.676;22.650;2023-03-31T16:27:55;7.70;;;4.03;;
72125;SDS011;59999;51.676;22.650;2023-03-31T16:30:36;8.70;;;4.73;;
72125;SDS011;59999;51.676;22.650;2023-03-31T16:33:04;10.43;;;4.82;;
72125;SDS011;59999;51.676;22.650;2023-03-31T16:35:35;11.65;;;5.10;;
72125;SDS011;59999;51.676;22.650;2023-03-31T16:38:03;9.93;;;5.35;;
72125;SDS011;59999;51.676;22.650;2023-03-31T16:40:30;16.35;;;7.03;;
72125;SDS011;59999;51.676;22.650;2023-03-31T16:43:15;14.13;;;6.60;;
72125;SDS011;59999;51.676;22.650;2023-03-31T16:45:43;15.30;;;6.82;;
72125;SDS011;59999;51.676;22.650;2023-03-31T16:48:14;17.20;;;6.40;;
72125;SDS011;59999;51.676;22.650;2023-03-31T16:50:42;14.63;;;6.90;;
72125;SDS011;59999;51.676;22.650;2023-03-31T16:53:12;16.33;;;7.28;;
72125;SDS011;59999;51.676;22.650;2023-03-31T16:55:40;13.63;;;6.70;;
72125;SDS011;59999;51.676;22.650;2023-03-31T16:58:06;17.23;;;7.70;;
72125;SDS011;59999;51.676;22.650;2023-03-31T17:00:34;16.00;;;7.30;;
72125;SDS011;59999;51.676;22.650;2023-03-31T17:03:00;16.15;;;7.40;;
72125;SDS011;59999;51.676;22.650;2023-03-31T17:05:30;16.80;;;8.10;;
72125;SDS011;59999;51.676;22.650;2023-03-31T17:08:01;18.07;;;7.93;;
72125;SDS011;59999;51.676;22.650;2023-03-31T17:10:28;16.75;;;8.02;;
72125;SDS011;59999;51.676;22.650;2023-03-31T17:12:53;17.13;;;7.53;;
72125;SDS011;59999;51.676;22.650;2023-03-31T17:15:20;16.85;;;9.30;;
72125;SDS011;59999;51.676;22.650;2023-03-31T17:17:46;20.07;;;10.47;;
72125;SDS011;59999;51.676;22.650;2023-03-31T17:20:13;19.30;;;11.60;;
72125;SDS011;59999;51.676;22.650;2023-03-31T17:22:38;23.00;;;11.48;;
72125;SDS011;59999;51.676;22.650;2023-03-31T17:25:05;26.65;;;16.25;;
72125;SDS011;59999;51.676;22.650;2023-03-31T17:27:32;27.53;;;15.03;;
72125;SDS011;59999;51.676;22.650;2023-03-31T17:29:59;29.83;;;15.70;;
72125;SDS011;59999;51.676;22.650;2023-03-31T17:32:26;30.13;;;15.48;;
72125;SDS011;59999;51.676;22.650;2023-03-31T17:34:53;23.20;;;12.45;;
72125;SDS011;59999;51.676;22.650;2023-03-31T17:37:19;17.55;;;9.90;;
72125;SDS011;59999;51.676;22.650;2023-03-31T17:39:45;17.60;;;9.13;;
72125;SDS011;59999;51.676;22.650;2023-03-31T17:42:11;17.38;;;7.95;;
72125;SDS011;59999;51.676;22.650;2023-03-31T17:44:38;15.50;;;8.38;;
72125;SDS011;59999;51.676;22.650;2023-03-31T17:47:05;15.98;;;7.32;;
72125;SDS011;59999;51.676;22.650;2023-03-31T17:49:31;18.67;;;8.27;;
72125;SDS011;59999;51.676;22.650;2023-03-31T17:51:57;16.60;;;8.07;;
72125;SDS011;59999;51.676;22.650;2023-03-31T17:54:24;15.65;;;7.70;;
72125;SDS011;59999;51.676;22.650;2023-03-31T17:56:51;16.75;;;8.02;;
72125;SDS011;59999;51.676;22.650;2023-03-31T17:59:17;15.48;;;7.75;;
72125;SDS011;59999;51.676;22.650;2023-03-31T18:01:44;15.77;;;7.67;;
72125;SDS011;59999;51.676;22.650;2023-03-31T18:04:11;17.35;;;7.97;;
72125;SDS011;59999;51.676;22.650;2023-03-31T18:06:38;18.05;;;8.48;;
72125;SDS011;59999;51.676;22.650;2023-03-31T18:09:04;15.65;;;8.02;;
72125;SDS011;59999;51.676;22.650;2023-03-31T18:11:30;18.30;;;8.77;;
72125;SDS011;59999;51.676;22.650;2023-03-31T18:13:57;22.77;;;9.73;;
72125;SDS011;59999;51.676;22.650;2023-03-31T18:16:26;24.13;;;10.93;;
72125;SDS011;59999;51.676;22.650;2023-03-31T18:18:52;23.58;;;10.60;;
72125;SDS011;59999;51.676;22.650;2023-03-31T18:21:18;26.17;;;10.80;;
72125;SDS011;59999;51.676;22.650;2023-03-31T18:23:45;23.90;;;11.45;;
72125;SDS011;59999;51.676;22.650;2023-03-31T18:26:12;27.88;;;11.77;;
72125;SDS011;59999;51.676;22.650;2023-03-31T18:28:38;27.20;;;14.35;;